createdAt,value
2018-07-30T00:00:28.781Z,998.68
2018-07-30T00:01:28.787Z,998.70
2018-07-30T00:02:28.791Z,998.73
2018-07-30T00:03:28.796Z,998.63
2018-07-30T00:04:28.798Z,998.68
2018-07-30T00:05:28.889Z,998.62
2018-07-30T00:06:28.808Z,998.65
2018-07-30T00:07:28.812Z,998.69
2018-07-30T00:08:28.822Z,998.70
2018-07-30T00:09:28.820Z,998.65
2018-07-30T00:10:28.825Z,998.67
2018-07-30T00:11:28.829Z,998.67
2018-07-30T00:12:28.833Z,998.67
2018-07-30T00:13:28.839Z,998.66
2018-07-30T00:14:28.847Z,998.69
2018-07-30T00:15:28.847Z,998.68
2018-07-30T00:16:28.857Z,998.68
2018-07-30T00:17:28.856Z,998.66
2018-07-30T00:18:28.860Z,998.68
2018-07-30T00:19:28.865Z,998.66
2018-07-30T00:20:28.873Z,998.68
2018-07-30T00:21:28.931Z,998.72
2018-07-30T00:22:28.878Z,998.72
2018-07-30T00:23:28.883Z,998.74
2018-07-30T00:24:28.891Z,998.75
2018-07-30T00:25:28.891Z,998.74
2018-07-30T00:26:28.898Z,998.77
2018-07-30T00:27:28.909Z,998.78
2018-07-30T00:28:28.903Z,998.77
2018-07-30T00:29:28.907Z,998.76
2018-07-30T00:30:28.913Z,998.77
2018-07-30T00:31:28.955Z,998.78
2018-07-30T00:32:28.924Z,998.75
2018-07-30T00:33:28.925Z,998.75
2018-07-30T00:34:28.934Z,998.76
2018-07-30T00:35:28.935Z,998.75
2018-07-30T00:36:28.937Z,998.75
2018-07-30T00:37:28.945Z,998.73
2018-07-30T00:38:28.946Z,998.77
2018-07-30T00:39:28.953Z,998.76
2018-07-30T00:40:28.954Z,998.77
2018-07-30T00:41:28.958Z,998.81
2018-07-30T00:42:28.964Z,998.80
2018-07-30T00:43:28.969Z,998.74
2018-07-30T00:44:28.977Z,998.79
2018-07-30T00:45:28.981Z,998.76
2018-07-30T00:46:28.984Z,998.79
2018-07-30T00:47:28.994Z,998.78
2018-07-30T00:48:28.991Z,998.79
2018-07-30T00:49:28.993Z,998.80
2018-07-30T00:50:28.998Z,998.78
2018-07-30T00:51:29.000Z,998.80
2018-07-30T00:52:29.005Z,998.84
2018-07-30T00:53:29.009Z,998.81
2018-07-30T00:54:29.015Z,998.87
2018-07-30T00:55:29.020Z,998.83
2018-07-30T00:56:29.024Z,998.90
2018-07-30T00:57:29.027Z,998.87
2018-07-30T00:58:29.031Z,998.88
2018-07-30T00:59:29.036Z,998.88
2018-07-30T01:00:29.039Z,998.86
2018-07-30T01:01:29.044Z,998.87
2018-07-30T01:02:29.048Z,998.87
2018-07-30T01:03:29.050Z,998.81
2018-07-30T01:04:29.059Z,998.85
2018-07-30T01:05:29.060Z,998.85
2018-07-30T01:06:29.064Z,998.83
2018-07-30T01:07:29.067Z,998.87
2018-07-30T01:08:29.071Z,998.87
2018-07-30T01:09:29.079Z,998.84
2018-07-30T01:10:29.080Z,998.86
2018-07-30T01:11:29.084Z,998.85
2018-07-30T01:12:29.089Z,998.82
2018-07-30T01:13:29.094Z,998.84
2018-07-30T01:14:29.174Z,998.83
2018-07-30T01:15:29.100Z,998.86
2018-07-30T01:16:29.106Z,998.87
2018-07-30T01:17:29.112Z,998.84
2018-07-30T01:18:29.115Z,998.83
2018-07-30T01:19:29.116Z,998.90
2018-07-30T01:20:29.125Z,998.88
2018-07-30T01:21:29.129Z,998.90
2018-07-30T01:22:29.129Z,998.89
2018-07-30T01:23:29.142Z,998.87
2018-07-30T01:24:29.139Z,998.86
2018-07-30T01:25:29.142Z,998.86
2018-07-30T01:26:29.147Z,998.87
2018-07-30T01:27:29.149Z,998.88
2018-07-30T01:28:29.153Z,998.89
2018-07-30T01:29:29.158Z,998.88
2018-07-30T01:30:29.161Z,998.88
2018-07-30T01:31:29.165Z,998.91
2018-07-30T01:32:29.168Z,998.92
2018-07-30T01:33:29.176Z,998.93
2018-07-30T01:34:29.180Z,998.92
2018-07-30T01:35:29.180Z,998.97
2018-07-30T01:36:29.188Z,999.01
2018-07-30T01:37:29.195Z,998.98
2018-07-30T01:38:29.242Z,998.99
2018-07-30T01:39:29.200Z,998.99
2018-07-30T01:40:29.199Z,999.00
2018-07-30T01:41:29.205Z,999.00
2018-07-30T01:42:29.208Z,999.02
2018-07-30T01:43:29.213Z,999.03
2018-07-30T01:44:29.219Z,999.02
2018-07-30T01:45:29.220Z,999.01
2018-07-30T01:46:29.227Z,999.01
2018-07-30T01:47:29.232Z,999.02
2018-07-30T01:48:29.235Z,999.04
2018-07-30T01:49:29.236Z,999.02
2018-07-30T01:50:29.241Z,999.03
2018-07-30T01:51:29.259Z,999.00
2018-07-30T01:52:29.247Z,999.04
2018-07-30T01:53:29.251Z,998.99
2018-07-30T01:54:29.257Z,999.04
2018-07-30T01:55:29.262Z,999.02
2018-07-30T01:56:29.266Z,999.00
2018-07-30T01:57:29.269Z,999.04
2018-07-30T01:58:29.270Z,999.00
2018-07-30T01:59:29.273Z,999.02
2018-07-30T02:00:29.278Z,999.03
2018-07-30T02:01:29.282Z,999.02
2018-07-30T02:02:29.286Z,999.04
2018-07-30T02:03:29.294Z,999.05
2018-07-30T02:04:29.294Z,999.08
2018-07-30T02:05:29.297Z,999.05
2018-07-30T02:06:29.307Z,999.08
2018-07-30T02:07:29.305Z,999.07
2018-07-30T02:08:29.309Z,999.06
2018-07-30T02:09:29.315Z,999.07
2018-07-30T02:10:29.318Z,999.07
2018-07-30T02:11:29.321Z,999.07
2018-07-30T02:12:29.324Z,999.08
2018-07-30T02:13:29.327Z,999.08
2018-07-30T02:14:29.331Z,999.07
2018-07-30T02:15:29.334Z,999.10
2018-07-30T02:16:29.341Z,999.07
2018-07-30T02:17:29.342Z,999.05
2018-07-30T02:18:29.349Z,999.06
2018-07-30T02:19:29.353Z,999.04
2018-07-30T02:20:29.354Z,999.11
2018-07-30T02:21:29.414Z,999.07
2018-07-30T02:22:29.366Z,999.12
2018-07-30T02:23:29.371Z,999.11
2018-07-30T02:24:29.368Z,999.11
2018-07-30T02:25:29.373Z,999.13
2018-07-30T02:26:29.376Z,999.12
2018-07-30T02:27:29.380Z,999.13
2018-07-30T02:28:29.385Z,999.17
2018-07-30T02:29:29.387Z,999.14
2018-07-30T02:30:29.394Z,999.18
2018-07-30T02:31:29.401Z,999.18
2018-07-30T02:32:29.398Z,999.14
2018-07-30T02:33:29.404Z,999.16
2018-07-30T02:34:29.411Z,999.17
2018-07-30T02:35:29.411Z,999.17
2018-07-30T02:36:29.416Z,999.17
2018-07-30T02:37:29.417Z,999.19
2018-07-30T02:38:29.421Z,999.23
2018-07-30T02:39:29.427Z,999.25
2018-07-30T02:40:29.443Z,999.24
2018-07-30T02:41:29.434Z,999.25
2018-07-30T02:42:29.438Z,999.25
2018-07-30T02:43:29.440Z,999.22
2018-07-30T02:44:29.445Z,999.20
2018-07-30T02:45:29.446Z,999.23
2018-07-30T02:46:29.469Z,999.24
2018-07-30T02:47:29.458Z,999.24
2018-07-30T02:48:29.457Z,999.24
2018-07-30T02:49:29.461Z,999.24
2018-07-30T02:50:29.467Z,999.23
2018-07-30T02:51:29.467Z,999.26
2018-07-30T02:52:29.472Z,999.27
2018-07-30T02:53:29.475Z,999.27
2018-07-30T02:54:29.482Z,999.26
2018-07-30T02:55:29.484Z,999.25
2018-07-30T02:56:29.486Z,999.26
2018-07-30T02:57:29.502Z,999.30
2018-07-30T02:58:29.492Z,999.30
2018-07-30T02:59:29.497Z,999.31
2018-07-30T03:00:29.504Z,999.34
2018-07-30T03:01:29.504Z,999.35
2018-07-30T03:02:29.509Z,999.38
2018-07-30T03:03:29.510Z,999.38
2018-07-30T03:04:29.514Z,999.40
2018-07-30T03:05:29.518Z,999.42
2018-07-30T03:06:29.522Z,999.42
2018-07-30T03:07:29.524Z,999.46
2018-07-30T03:08:29.528Z,999.44
2018-07-30T03:09:29.595Z,999.43
2018-07-30T03:10:29.536Z,999.47
2018-07-30T03:11:29.538Z,999.47
2018-07-30T03:12:29.545Z,999.46
2018-07-30T03:13:29.548Z,999.44
2018-07-30T03:14:29.554Z,999.44
2018-07-30T03:15:29.552Z,999.42
2018-07-30T03:16:29.556Z,999.45
2018-07-30T03:17:29.560Z,999.45
2018-07-30T03:18:36.434Z,999.46
2018-07-30T03:19:29.568Z,999.44
2018-07-30T03:20:29.570Z,999.50
2018-07-30T03:21:29.573Z,999.47
2018-07-30T03:22:29.576Z,999.48
2018-07-30T03:23:29.599Z,999.43
2018-07-30T03:24:29.588Z,999.44
2018-07-30T03:25:29.589Z,999.44
2018-07-30T03:26:29.593Z,999.46
2018-07-30T03:27:29.593Z,999.43
2018-07-30T03:28:29.596Z,999.44
2018-07-30T03:29:29.601Z,999.43
2018-07-30T03:30:29.607Z,999.43
2018-07-30T03:31:29.610Z,999.46
2018-07-30T03:32:29.611Z,999.46
2018-07-30T03:33:29.616Z,999.46
2018-07-30T03:34:29.620Z,999.48
2018-07-30T03:35:29.620Z,999.44
2018-07-30T03:36:29.623Z,999.47
2018-07-30T03:37:29.628Z,999.45
2018-07-30T03:38:29.631Z,999.49
2018-07-30T03:39:29.634Z,999.47
2018-07-30T03:40:29.637Z,999.50
2018-07-30T03:41:29.640Z,999.47
2018-07-30T03:42:29.646Z,999.50
2018-07-30T03:43:29.664Z,999.49
2018-07-30T03:44:29.654Z,999.50
2018-07-30T03:45:29.653Z,999.47
2018-07-30T03:46:29.657Z,999.49
2018-07-30T03:47:29.664Z,999.49
2018-07-30T03:48:29.681Z,999.51
2018-07-30T03:49:29.669Z,999.47
2018-07-30T03:50:29.671Z,999.48
2018-07-30T03:51:29.679Z,999.46
2018-07-30T03:52:29.676Z,999.48
2018-07-30T03:53:29.680Z,999.49
2018-07-30T03:54:29.684Z,999.51
2018-07-30T03:55:29.687Z,999.51
2018-07-30T03:56:29.690Z,999.52
2018-07-30T03:57:29.693Z,999.54
2018-07-30T03:58:29.696Z,999.55
2018-07-30T03:59:29.708Z,999.54
2018-07-30T04:00:29.704Z,999.56
2018-07-30T04:01:29.706Z,999.54
2018-07-30T04:02:29.713Z,999.53
2018-07-30T04:03:29.713Z,999.56
2018-07-30T04:04:29.715Z,999.56
2018-07-30T04:05:29.718Z,999.55
2018-07-30T04:06:29.806Z,999.58
2018-07-30T04:07:29.727Z,999.56
2018-07-30T04:08:29.729Z,999.60
2018-07-30T04:09:29.731Z,999.59
2018-07-30T04:10:29.735Z,999.62
2018-07-30T04:11:29.737Z,999.63
2018-07-30T04:12:29.740Z,999.67
2018-07-30T04:13:29.753Z,999.65
2018-07-30T04:14:29.746Z,999.63
2018-07-30T04:15:29.752Z,999.61
2018-07-30T04:16:29.753Z,999.58
2018-07-30T04:17:29.756Z,999.60
2018-07-30T04:18:29.759Z,999.61
2018-07-30T04:19:29.762Z,999.62
2018-07-30T04:20:29.765Z,999.65
2018-07-30T04:21:29.769Z,999.63
2018-07-30T04:22:29.785Z,999.63
2018-07-30T04:23:29.774Z,999.62
2018-07-30T04:24:29.778Z,999.62
2018-07-30T04:25:29.781Z,999.61
2018-07-30T04:26:29.784Z,999.60
2018-07-30T04:27:29.786Z,999.62
2018-07-30T04:28:29.792Z,999.61
2018-07-30T04:29:29.792Z,999.61
2018-07-30T04:30:29.800Z,999.63
2018-07-30T04:31:29.856Z,999.66
2018-07-30T04:32:29.801Z,999.66
2018-07-30T04:33:29.806Z,999.67
2018-07-30T04:34:29.808Z,999.69
2018-07-30T04:35:29.810Z,999.68
2018-07-30T04:36:29.815Z,999.66
2018-07-30T04:37:29.818Z,999.70
2018-07-30T04:38:29.820Z,999.71
2018-07-30T04:39:29.824Z,999.69
2018-07-30T04:40:29.826Z,999.67
2018-07-30T04:41:29.832Z,999.69
2018-07-30T04:42:29.833Z,999.72
2018-07-30T04:43:29.836Z,999.66
2018-07-30T04:44:29.842Z,999.69
2018-07-30T04:45:29.842Z,999.67
2018-07-30T04:46:29.846Z,999.70
2018-07-30T04:47:29.851Z,999.65
2018-07-30T04:48:29.854Z,999.70
2018-07-30T04:49:29.856Z,999.71
2018-07-30T04:50:29.863Z,999.72
2018-07-30T04:51:29.862Z,999.65
2018-07-30T04:52:29.864Z,999.70
2018-07-30T04:53:29.870Z,999.70
2018-07-30T04:54:29.873Z,999.67
2018-07-30T04:55:29.878Z,999.69
2018-07-30T04:56:29.877Z,999.69
2018-07-30T04:57:29.883Z,999.68
2018-07-30T04:58:29.891Z,999.69
2018-07-30T04:59:29.887Z,999.69
2018-07-30T05:00:29.894Z,999.66
2018-07-30T05:01:29.896Z,999.67
2018-07-30T05:02:29.899Z,999.70
2018-07-30T05:03:29.901Z,999.68
2018-07-30T05:04:29.905Z,999.68
2018-07-30T05:05:29.908Z,999.70
2018-07-30T05:06:29.911Z,999.72
2018-07-30T05:07:29.914Z,999.74
2018-07-30T05:08:29.920Z,999.72
2018-07-30T05:09:29.921Z,999.73
2018-07-30T05:10:29.971Z,999.74
2018-07-30T05:11:29.935Z,999.74
2018-07-30T05:12:29.932Z,999.76
2018-07-30T05:13:29.937Z,999.73
2018-07-30T05:14:29.943Z,999.72
2018-07-30T05:15:29.947Z,999.73
2018-07-30T05:16:29.948Z,999.69
2018-07-30T05:17:29.950Z,999.69
2018-07-30T05:18:29.957Z,999.72
2018-07-30T05:19:30.079Z,999.74
2018-07-30T05:20:29.965Z,999.74
2018-07-30T05:21:29.965Z,999.74
2018-07-30T05:22:29.971Z,999.74
2018-07-30T05:23:29.988Z,999.80
2018-07-30T05:24:29.977Z,999.74
2018-07-30T05:25:30.041Z,999.75
2018-07-30T05:26:29.989Z,999.77
2018-07-30T05:27:29.987Z,999.82
2018-07-30T05:28:29.995Z,999.78
2018-07-30T05:29:29.997Z,999.79
2018-07-30T05:30:30.009Z,999.81
2018-07-30T05:31:30.055Z,999.80
2018-07-30T05:32:30.012Z,999.80
2018-07-30T05:33:30.016Z,999.83
2018-07-30T05:34:30.027Z,999.83
2018-07-30T05:35:30.024Z,999.82
2018-07-30T05:36:30.031Z,999.81
2018-07-30T05:37:30.033Z,999.83
2018-07-30T05:38:30.036Z,999.85
2018-07-30T05:39:30.041Z,999.82
2018-07-30T05:40:30.046Z,999.83
2018-07-30T05:41:30.052Z,999.81
2018-07-30T05:42:30.056Z,999.86
2018-07-30T05:43:30.065Z,999.84
2018-07-30T05:44:30.064Z,999.83
2018-07-30T05:45:30.068Z,999.88
2018-07-30T05:46:30.074Z,999.89
2018-07-30T05:47:30.077Z,999.93
2018-07-30T05:48:30.083Z,999.87
2018-07-30T05:49:30.091Z,999.93
2018-07-30T05:50:30.099Z,999.94
2018-07-30T05:51:30.102Z,999.94
2018-07-30T05:52:30.240Z,999.93
2018-07-30T05:53:30.113Z,999.94
2018-07-30T05:54:30.176Z,999.96
2018-07-30T05:55:30.117Z,999.95
2018-07-30T05:56:30.129Z,999.95
2018-07-30T05:57:30.131Z,999.94
2018-07-30T05:58:30.131Z,999.90
2018-07-30T05:59:31.694Z,999.91
2018-07-30T06:00:30.324Z,999.93
2018-07-30T06:01:30.293Z,999.93
2018-07-30T06:02:30.345Z,999.89
2018-07-30T06:03:30.978Z,999.89
2018-07-30T06:04:31.065Z,999.88
2018-07-30T06:05:30.298Z,999.90
2018-07-30T06:06:30.928Z,999.87
2018-07-30T06:07:30.969Z,999.91
2018-07-30T06:08:30.186Z,999.91
2018-07-30T06:09:30.189Z,999.93
2018-07-30T06:10:30.192Z,999.93
2018-07-30T06:11:30.195Z,999.91
2018-07-30T06:12:30.201Z,999.94
2018-07-30T06:13:30.209Z,999.93
2018-07-30T06:14:30.211Z,999.96
2018-07-30T06:15:30.238Z,999.93
2018-07-30T06:16:30.220Z,999.94
2018-07-30T06:17:30.225Z,999.94
2018-07-30T06:18:30.232Z,999.94
2018-07-30T06:19:30.235Z,999.98
2018-07-30T06:20:30.243Z,999.97
2018-07-30T06:21:30.243Z,1000.03
2018-07-30T06:22:30.253Z,1000.00
2018-07-30T06:23:30.254Z,1000.01
2018-07-30T06:24:30.259Z,999.98
2018-07-30T06:25:30.265Z,1000.03
2018-07-30T06:26:30.303Z,1000.01
2018-07-30T06:27:30.369Z,1000.02
2018-07-30T06:28:30.279Z,1000.02
2018-07-30T06:29:30.287Z,1000.01
2018-07-30T06:30:30.290Z,1000.01
2018-07-30T06:31:30.293Z,1000.01
2018-07-30T06:32:30.302Z,999.95
2018-07-30T06:33:30.308Z,999.98
2018-07-30T06:34:30.309Z,999.99
2018-07-30T06:35:30.313Z,999.99
2018-07-30T06:36:30.319Z,999.99
2018-07-30T06:37:30.327Z,999.98
2018-07-30T06:38:30.381Z,1000.06
2018-07-30T06:39:30.332Z,1000.06
2018-07-30T06:40:30.337Z,1000.08
2018-07-30T06:41:30.343Z,1000.12
2018-07-30T06:42:30.363Z,1000.13
2018-07-30T06:43:30.354Z,1000.13
2018-07-30T06:44:30.369Z,1000.12
2018-07-30T06:45:30.362Z,1000.13
2018-07-30T06:46:30.365Z,1000.13
2018-07-30T06:47:30.377Z,1000.11
2018-07-30T06:48:30.397Z,1000.15
2018-07-30T06:49:30.385Z,1000.14
2018-07-30T06:50:30.386Z,1000.11
2018-07-30T06:51:30.394Z,1000.15
2018-07-30T06:52:30.397Z,1000.13
2018-07-30T06:53:31.775Z,1000.14
2018-07-30T06:54:30.405Z,1000.14
2018-07-30T06:55:30.410Z,1000.11
2018-07-30T06:56:30.414Z,1000.12
2018-07-30T06:57:30.419Z,1000.12
2018-07-30T06:58:30.429Z,1000.10
2018-07-30T06:59:30.431Z,1000.09
2018-07-30T07:00:30.433Z,1000.05
2018-07-30T07:01:30.438Z,1000.07
2018-07-30T07:02:30.443Z,1000.11
2018-07-30T07:03:30.449Z,1000.08
2018-07-30T07:04:30.453Z,1000.08
2018-07-30T07:05:30.460Z,1000.09
2018-07-30T07:06:30.463Z,1000.06
2018-07-30T07:07:30.466Z,1000.08
2018-07-30T07:08:30.471Z,1000.08
2018-07-30T07:09:30.477Z,1000.05
2018-07-30T07:10:30.482Z,1000.09
2018-07-30T07:11:30.489Z,1000.09
2018-07-30T07:12:30.491Z,1000.08
2018-07-30T07:13:30.498Z,1000.12
2018-07-30T07:14:30.499Z,1000.10
2018-07-30T07:15:30.534Z,1000.12
2018-07-30T07:16:30.531Z,1000.12
2018-07-30T07:17:30.520Z,1000.12
2018-07-30T07:18:30.525Z,1000.13
2018-07-30T07:19:30.524Z,1000.14
2018-07-30T07:20:30.531Z,1000.10
2018-07-30T07:21:30.581Z,1000.09
2018-07-30T07:22:30.537Z,1000.12
2018-07-30T07:23:30.543Z,1000.13
2018-07-30T07:24:30.547Z,1000.15
2018-07-30T07:25:30.553Z,1000.13
2018-07-30T07:26:30.557Z,1000.17
2018-07-30T07:27:30.607Z,1000.18
2018-07-30T07:28:30.566Z,1000.12
2018-07-30T07:29:30.581Z,1000.12
2018-07-30T07:30:30.577Z,1000.15
2018-07-30T07:31:30.581Z,1000.14
2018-07-30T07:32:30.587Z,1000.13
2018-07-30T07:33:30.592Z,1000.11
2018-07-30T07:34:30.600Z,1000.11
2018-07-30T07:35:30.602Z,1000.11
2018-07-30T07:36:30.606Z,1000.09
2018-07-30T07:37:30.611Z,1000.08
2018-07-30T07:38:30.616Z,1000.06
2018-07-30T07:39:30.621Z,1000.08
2018-07-30T07:40:30.627Z,1000.08
2018-07-30T07:41:30.631Z,1000.06
2018-07-30T07:42:30.638Z,1000.04
2018-07-30T07:43:30.640Z,1000.05
2018-07-30T07:44:30.645Z,1000.04
2018-07-30T07:45:30.675Z,1000.05
2018-07-30T07:46:30.656Z,1000.06
2018-07-30T07:47:30.662Z,1000.07
2018-07-30T07:48:30.666Z,1000.08
2018-07-30T07:49:30.680Z,1000.08
2018-07-30T07:50:30.791Z,1000.06
2018-07-30T07:51:30.687Z,1000.07
2018-07-30T07:52:30.687Z,1000.05
2018-07-30T07:53:30.693Z,1000.04
2018-07-30T07:54:30.698Z,1000.05
2018-07-30T07:55:30.702Z,1000.03
2018-07-30T07:56:30.709Z,999.98
2018-07-30T07:57:30.732Z,1000.03
2018-07-30T07:58:30.720Z,1000.00
2018-07-30T07:59:30.725Z,1000.01
2018-07-30T08:00:30.729Z,1000.00
2018-07-30T08:01:30.735Z,1000.01
2018-07-30T08:02:30.754Z,999.98
2018-07-30T08:03:30.749Z,999.99
2018-07-30T08:04:30.753Z,1000.00
2018-07-30T08:05:30.756Z,999.97
2018-07-30T08:06:30.763Z,999.98
2018-07-30T08:07:30.768Z,999.98
2018-07-30T08:08:30.777Z,999.97
2018-07-30T08:09:30.782Z,999.96
2018-07-30T08:10:30.787Z,999.96
2018-07-30T08:11:30.789Z,999.97
2018-07-30T08:12:30.806Z,999.96
2018-07-30T08:13:30.816Z,999.97
2018-07-30T08:14:30.806Z,999.95
2018-07-30T08:15:30.816Z,999.98
2018-07-30T08:16:30.819Z,999.98
2018-07-30T08:17:30.828Z,999.96
2018-07-30T08:18:30.828Z,1000.00
2018-07-30T08:19:30.835Z,999.97
2018-07-30T08:20:30.838Z,999.99
2018-07-30T08:21:30.844Z,999.95
2018-07-30T08:22:30.851Z,999.96
2018-07-30T08:23:30.857Z,999.98
2018-07-30T08:24:30.866Z,999.98
2018-07-30T08:25:30.871Z,1000.04
2018-07-30T08:26:30.872Z,1000.00
2018-07-30T08:27:30.905Z,1000.00
2018-07-30T08:28:30.902Z,999.96
2018-07-30T08:29:30.889Z,999.97
2018-07-30T08:30:30.893Z,999.98
2018-07-30T08:31:30.899Z,999.95
2018-07-30T08:32:30.905Z,999.99
2018-07-30T08:33:30.911Z,999.96
2018-07-30T08:34:30.916Z,1000.00
2018-07-30T08:35:30.920Z,999.99
2018-07-30T08:36:30.925Z,999.96
2018-07-30T08:37:30.933Z,999.96
2018-07-30T08:38:30.937Z,1000.01
2018-07-30T08:39:30.943Z,999.96
2018-07-30T08:40:30.956Z,999.97
2018-07-30T08:41:30.957Z,999.99
2018-07-30T08:42:30.968Z,999.98
2018-07-30T08:43:30.965Z,1000.04
2018-07-30T08:44:30.993Z,999.98
2018-07-30T08:45:30.981Z,1000.04
2018-07-30T08:46:30.988Z,1000.01
2018-07-30T08:47:30.993Z,1000.00
2018-07-30T08:48:31.002Z,1000.01
2018-07-30T08:49:31.001Z,999.98
2018-07-30T08:50:31.012Z,1000.02
2018-07-30T08:51:31.009Z,1000.03
2018-07-30T08:52:31.018Z,1000.02
2018-07-30T08:53:31.021Z,999.98
2018-07-30T08:54:31.029Z,1000.06
2018-07-30T08:55:31.035Z,1000.02
2018-07-30T08:56:31.097Z,1000.06
2018-07-30T08:57:31.048Z,1000.03
2018-07-30T08:58:31.073Z,1000.04
2018-07-30T08:59:31.062Z,999.97
2018-07-30T09:00:31.069Z,999.97
2018-07-30T09:01:31.083Z,1000.01
2018-07-30T09:02:31.109Z,1000.00
2018-07-30T09:03:31.090Z,999.98
2018-07-30T09:04:31.099Z,999.98
2018-07-30T09:05:31.109Z,1000.02
2018-07-30T09:06:31.117Z,1000.02
2018-07-30T09:07:31.130Z,1000.01
2018-07-30T09:08:31.161Z,1000.06
2018-07-30T09:09:31.147Z,1000.02
2018-07-30T09:10:31.989Z,1000.05
2018-07-30T09:11:31.163Z,1000.07
2018-07-30T09:12:31.250Z,1000.09
2018-07-30T09:13:31.183Z,1000.07
2018-07-30T09:14:31.195Z,1000.08
2018-07-30T09:15:31.201Z,1000.04
2018-07-30T09:16:31.210Z,1000.00
2018-07-30T09:17:31.224Z,1000.00
2018-07-30T09:18:31.235Z,1000.01
2018-07-30T09:19:31.244Z,999.98
2018-07-30T09:20:31.252Z,1000.05
2018-07-30T09:21:31.264Z,999.97
2018-07-30T09:22:31.295Z,999.98
2018-07-30T09:23:31.320Z,1000.03
2018-07-30T09:24:31.300Z,1000.05
2018-07-30T09:25:31.311Z,1000.01
2018-07-30T09:26:31.325Z,1000.02
2018-07-30T09:27:31.334Z,1000.03
2018-07-30T09:28:31.350Z,1000.10
2018-07-30T09:29:31.367Z,1000.04
2018-07-30T09:30:31.376Z,1000.02
2018-07-30T09:31:31.386Z,1000.01
2018-07-30T09:32:31.400Z,999.99
2018-07-30T09:33:31.415Z,999.99
2018-07-30T09:34:31.434Z,1000.01
2018-07-30T09:35:31.445Z,1000.00
2018-07-30T09:36:31.458Z,1000.01
2018-07-30T09:37:31.474Z,1000.00
2018-07-30T09:38:31.491Z,999.99
2018-07-30T09:39:31.561Z,1000.01
2018-07-30T09:40:31.524Z,1000.00
2018-07-30T09:41:31.561Z,1000.01
2018-07-30T09:42:31.550Z,999.98
2018-07-30T09:43:31.566Z,999.98
2018-07-30T09:44:31.620Z,999.97
2018-07-30T09:45:31.597Z,999.99
2018-07-30T09:46:31.611Z,1000.02
2018-07-30T09:47:31.625Z,1000.08
2018-07-30T09:48:31.639Z,1000.04
2018-07-30T09:49:31.679Z,1000.04
2018-07-30T09:50:31.696Z,1000.02
2018-07-30T09:51:31.682Z,1000.05
2018-07-30T09:52:31.697Z,1000.07
2018-07-30T09:53:31.712Z,1000.04
2018-07-30T09:54:31.729Z,1000.01
2018-07-30T09:55:31.741Z,1000.03
2018-07-30T09:56:31.756Z,1000.07
2018-07-30T09:57:31.774Z,1000.07
2018-07-30T09:58:31.784Z,1000.06
2018-07-30T09:59:31.799Z,1000.08
2018-07-30T10:00:31.813Z,1000.11
2018-07-30T10:01:31.828Z,1000.07
2018-07-30T10:02:31.844Z,1000.02
2018-07-30T10:03:31.858Z,1000.05
2018-07-30T10:04:31.915Z,1000.04
2018-07-30T10:05:31.886Z,1000.10
2018-07-30T10:06:31.900Z,1000.07
2018-07-30T10:07:31.972Z,1000.04
2018-07-30T10:08:31.927Z,1000.07
2018-07-30T10:09:31.940Z,1000.07
2018-07-30T10:10:31.955Z,1000.04
2018-07-30T10:11:31.972Z,1000.08
2018-07-30T10:12:31.985Z,1000.15
2018-07-30T10:13:31.990Z,1000.17
2018-07-30T10:14:32.005Z,1000.09
2018-07-30T10:15:32.012Z,1000.17
2018-07-30T10:16:32.024Z,1000.23
2018-07-30T10:17:32.085Z,1000.18
2018-07-30T10:18:32.048Z,1000.18
2018-07-30T10:19:32.056Z,1000.14
2018-07-30T10:20:32.066Z,1000.09
2018-07-30T10:21:32.080Z,1000.08
2018-07-30T10:22:32.088Z,1000.07
2018-07-30T10:23:32.104Z,1000.06
2018-07-30T10:24:32.117Z,1000.06
2018-07-30T10:25:32.121Z,1000.04
2018-07-30T10:26:32.128Z,1000.04
2018-07-30T10:27:32.137Z,1000.08
2018-07-30T10:28:32.145Z,1000.07
2018-07-30T10:29:32.155Z,1000.07
2018-07-30T10:30:32.171Z,1000.03
2018-07-30T10:31:32.175Z,1000.04
2018-07-30T10:32:32.213Z,1000.01
2018-07-30T10:33:32.195Z,1000.01
2018-07-30T10:34:32.230Z,1000.00
2018-07-30T10:35:32.215Z,999.99
2018-07-30T10:36:32.222Z,1000.06
2018-07-30T10:37:32.245Z,1000.01
2018-07-30T10:38:32.244Z,1000.03
2018-07-30T10:39:32.254Z,1000.03
2018-07-30T10:40:32.265Z,1000.04
2018-07-30T10:41:32.276Z,999.96
2018-07-30T10:42:34.294Z,999.94
2018-07-30T10:43:32.296Z,999.95
2018-07-30T10:44:32.308Z,999.88
2018-07-30T10:45:32.328Z,999.91
2018-07-30T10:46:32.331Z,999.87
2018-07-30T10:47:32.341Z,999.86
2018-07-30T10:48:32.357Z,999.85
2018-07-30T10:49:32.365Z,999.87
2018-07-30T10:50:32.377Z,999.85
2018-07-30T10:51:32.389Z,999.85
2018-07-30T10:52:32.600Z,999.84
2018-07-30T10:53:32.413Z,999.84
2018-07-30T10:54:32.453Z,999.81
2018-07-30T10:55:32.438Z,999.77
2018-07-30T10:56:32.449Z,999.80
2018-07-30T10:57:32.461Z,999.82
2018-07-30T10:58:32.474Z,999.81
2018-07-30T10:59:32.488Z,999.81
2018-07-30T11:00:32.501Z,999.74
2018-07-30T11:01:32.543Z,999.72
2018-07-30T11:02:32.534Z,999.75
2018-07-30T11:03:32.542Z,999.73
2018-07-30T11:04:32.559Z,999.76
2018-07-30T11:05:32.570Z,999.77
2018-07-30T11:06:32.615Z,999.74
2018-07-30T11:07:32.602Z,999.77
2018-07-30T11:08:32.615Z,999.77
2018-07-30T11:09:32.676Z,999.75
2018-07-30T11:10:32.650Z,999.76
2018-07-30T11:11:32.712Z,999.79
2018-07-30T11:12:32.714Z,999.71
2018-07-30T11:13:32.701Z,999.72
2018-07-30T11:14:32.718Z,999.70
2018-07-30T11:15:32.735Z,999.71
2018-07-30T11:16:32.753Z,999.64
2018-07-30T11:17:33.223Z,999.63
2018-07-30T11:18:32.794Z,999.62
2018-07-30T11:19:32.808Z,999.60
2018-07-30T11:20:32.827Z,999.59
2018-07-30T11:21:32.869Z,999.57
2018-07-30T11:22:32.867Z,999.58
2018-07-30T11:23:32.936Z,999.53
2018-07-30T11:24:32.905Z,999.52
2018-07-30T11:25:32.933Z,999.59
2018-07-30T11:26:32.947Z,999.59
2018-07-30T11:27:32.964Z,999.61
2018-07-30T11:28:32.985Z,999.64
2018-07-30T11:29:33.007Z,999.66
2018-07-30T11:30:33.025Z,999.59
2018-07-30T11:31:33.043Z,999.54
2018-07-30T11:32:33.072Z,999.52
2018-07-30T11:33:33.132Z,999.54
2018-07-30T11:34:33.195Z,999.56
2018-07-30T11:35:33.234Z,999.59
2018-07-30T11:36:33.212Z,999.59
2018-07-30T11:37:33.216Z,999.52
2018-07-30T11:38:33.390Z,999.51
2018-07-30T11:39:33.260Z,999.57
2018-07-30T11:40:33.247Z,999.52
2018-07-30T11:41:33.271Z,999.51
2018-07-30T11:42:33.292Z,999.49
2018-07-30T11:43:33.304Z,999.45
2018-07-30T11:44:33.325Z,999.43
2018-07-30T11:45:33.340Z,999.47
2018-07-30T11:46:33.361Z,999.48
2018-07-30T11:47:33.387Z,999.49
2018-07-30T11:48:33.568Z,999.45
2018-07-30T11:49:33.482Z,999.43
2018-07-30T11:50:33.715Z,999.45
2018-07-30T11:51:33.632Z,999.43
2018-07-30T11:52:33.802Z,999.45
2018-07-30T11:53:33.632Z,999.49
2018-07-30T11:54:33.685Z,999.51
2018-07-30T11:55:33.557Z,999.46
2018-07-30T11:56:33.580Z,999.47
2018-07-30T11:57:33.607Z,999.47
2018-07-30T11:58:33.640Z,999.45
2018-07-30T11:59:33.683Z,999.43
2018-07-30T12:00:33.713Z,999.43
2018-07-30T12:01:33.686Z,999.41
2018-07-30T12:02:33.714Z,999.38
2018-07-30T12:03:33.730Z,999.36
2018-07-30T12:04:34.752Z,999.34
2018-07-30T12:05:33.808Z,999.36
2018-07-30T12:06:33.791Z,999.29
2018-07-30T12:07:33.858Z,999.33
2018-07-30T12:08:33.863Z,999.35
2018-07-30T12:09:34.580Z,999.35
2018-07-30T12:10:33.958Z,999.34
2018-07-30T12:11:33.954Z,999.33
2018-07-30T12:12:33.996Z,999.28
2018-07-30T12:13:33.956Z,999.29
2018-07-30T12:14:35.034Z,999.30
2018-07-30T12:15:33.983Z,999.33
2018-07-30T12:16:34.118Z,999.35
2018-07-30T12:17:34.079Z,999.37
2018-07-30T12:18:34.191Z,999.37
2018-07-30T12:19:34.070Z,999.40
2018-07-30T12:20:34.079Z,999.38
2018-07-30T12:21:34.099Z,999.39
2018-07-30T12:22:34.118Z,999.40